sensor_id;sensor_type;location;lat;lon;timestamp;pressure;altitude;pressure_sealevel;temperature;humidity
11413;BME280;5762;43.256;26.960;2023-03-03T00:01:34;100058.16;;;4.95;100.00
11413;BME280;5762;43.256;26.960;2023-03-03T00:04:03;100053.94;;;5.01;100.00
11413;BME280;5762;43.256;26.960;2023-03-03T00:06:31;100053.71;;;5.05;100.00
11413;BME280;5762;43.256;26.960;2023-03-03T00:09:00;100058.23;;;5.02;100.00
11413;BME280;5762;43.256;26.960;2023-03-03T00:11:29;100051.89;;;5.11;100.00
11413;BME280;5762;43.256;26.960;2023-03-03T00:13:57;100049.33;;;4.97;100.00
11413;BME280;5762;43.256;26.960;2023-03-03T00:16:40;100047.17;;;4.96;100.00
11413;BME280;5762;43.256;26.960;2023-03-03T00:19:16;100045.03;;;4.96;100.00
11413;BME280;5762;43.256;26.960;2023-03-03T00:21:41;100046.28;;;4.88;100.00
11413;BME280;5762;43.256;26.960;2023-03-03T00:26:52;100040.47;;;4.96;100.00
11413;BME280;5762;43.256;26.960;2023-03-03T00:34:30;100030.10;;;5.05;100.00
11413;BME280;5762;43.256;26.960;2023-03-03T00:36:59;100032.45;;;4.99;100.00
11413;BME280;5762;43.256;26.960;2023-03-03T00:39:36;100030.58;;;4.99;100.00
11413;BME280;5762;43.256;26.960;2023-03-03T00:42:00;100034.25;;;4.91;100.00
11413;BME280;5762;43.256;26.960;2023-03-03T00:49:32;100022.25;;;4.98;100.00
11413;BME280;5762;43.256;26.960;2023-03-03T00:52:01;100024.36;;;4.94;100.00
11413;BME280;5762;43.256;26.960;2023-03-03T00:54:30;100013.55;;;4.86;100.00
11413;BME280;5762;43.256;26.960;2023-03-03T00:56:59;100010.82;;;4.79;100.00
11413;BME280;5762;43.256;26.960;2023-03-03T00:59:27;100008.67;;;4.78;100.00
11413;BME280;5762;43.256;26.960;2023-03-03T01:01:56;100007.05;;;4.77;100.00
11413;BME280;5762;43.256;26.960;2023-03-03T01:04:25;100009.42;;;4.74;100.00
11413;BME280;5762;43.256;26.960;2023-03-03T01:06:54;100006.03;;;4.86;100.00
11413;BME280;5762;43.256;26.960;2023-03-03T01:09:23;99998.02;;;4.88;100.00
11413;BME280;5762;43.256;26.960;2023-03-03T01:11:51;100001.19;;;4.80;100.00
11413;BME280;5762;43.256;26.960;2023-03-03T01:14:20;99995.55;;;4.79;100.00
11413;BME280;5762;43.256;26.960;2023-03-03T01:16:49;99995.04;;;4.82;100.00
11413;BME280;5762;43.256;26.960;2023-03-03T01:19:17;99990.96;;;4.77;100.00
11413;BME280;5762;43.256;26.960;2023-03-03T01:21:46;99989.30;;;4.71;100.00
11413;BME280;5762;43.256;26.960;2023-03-03T01:24:14;99990.33;;;4.67;100.00
11413;BME280;5762;43.256;26.960;2023-03-03T01:26:43;99991.50;;;4.77;100.00
11413;BME280;5762;43.256;26.960;2023-03-03T01:29:12;99990.16;;;4.77;100.00
11413;BME280;5762;43.256;26.960;2023-03-03T01:31:41;99992.25;;;4.72;100.00
11413;BME280;5762;43.256;26.960;2023-03-03T01:34:10;99986.13;;;4.77;100.00
11413;BME280;5762;43.256;26.960;2023-03-03T01:36:39;99985.30;;;4.74;100.00
11413;BME280;5762;43.256;26.960;2023-03-03T01:39:09;99981.81;;;4.73;100.00
11413;BME280;5762;43.256;26.960;2023-03-03T01:41:37;99977.61;;;4.82;100.00
11413;BME280;5762;43.256;26.960;2023-03-03T01:44:10;99980.52;;;4.78;100.00
11413;BME280;5762;43.256;26.960;2023-03-03T01:49:33;99978.48;;;4.93;100.00
11413;BME280;5762;43.256;26.960;2023-03-03T01:51:46;99971.14;;;4.78;100.00
11413;BME280;5762;43.256;26.960;2023-03-03T01:54:16;99977.28;;;4.76;100.00
11413;BME280;5762;43.256;26.960;2023-03-03T01:56:43;99969.31;;;4.84;100.00
11413;BME280;5762;43.256;26.960;2023-03-03T01:59:13;99967.56;;;4.70;100.00
11413;BME280;5762;43.256;26.960;2023-03-03T02:01:41;99969.44;;;4.69;100.00
11413;BME280;5762;43.256;26.960;2023-03-03T02:04:10;99970.13;;;4.84;100.00
11413;BME280;5762;43.256;26.960;2023-03-03T02:06:39;99959.05;;;4.76;100.00
11413;BME280;5762;43.256;26.960;2023-03-03T02:09:14;99964.66;;;4.74;100.00
11413;BME280;5762;43.256;26.960;2023-03-03T02:11:38;99964.80;;;4.92;100.00
11413;BME280;5762;43.256;26.960;2023-03-03T02:14:09;99959.38;;;4.82;100.00
11413;BME280;5762;43.256;26.960;2023-03-03T02:16:37;99961.52;;;4.82;100.00
11413;BME280;5762;43.256;26.960;2023-03-03T02:19:10;99957.81;;;4.91;100.00
11413;BME280;5762;43.256;26.960;2023-03-03T02:21:36;99957.03;;;4.93;100.00
11413;BME280;5762;43.256;26.960;2023-03-03T02:24:24;99957.13;;;5.03;100.00
11413;BME280;5762;43.256;26.960;2023-03-03T02:26:50;99953.13;;;5.05;100.00
11413;BME280;5762;43.256;26.960;2023-03-03T02:29:19;99952.27;;;5.00;100.00
11413;BME280;5762;43.256;26.960;2023-03-03T02:31:47;99946.12;;;5.02;100.00
11413;BME280;5762;43.256;26.960;2023-03-03T02:34:16;99940.73;;;4.99;100.00
11413;BME280;5762;43.256;26.960;2023-03-03T02:36:44;99947.23;;;5.06;100.00
11413;BME280;5762;43.256;26.960;2023-03-03T02:39:21;99939.41;;;5.02;100.00
11413;BME280;5762;43.256;26.960;2023-03-03T02:44:31;99938.11;;;5.07;100.00
11413;BME280;5762;43.256;26.960;2023-03-03T02:47:00;99941.56;;;5.02;100.00
11413;BME280;5762;43.256;26.960;2023-03-03T02:49:30;99941.88;;;5.09;100.00
11413;BME280;5762;43.256;26.960;2023-03-03T02:52:00;99942.92;;;5.05;100.00
11413;BME280;5762;43.256;26.960;2023-03-03T02:54:29;99935.34;;;4.97;100.00
11413;BME280;5762;43.256;26.960;2023-03-03T02:56:58;99947.46;;;5.02;100.00
11413;BME280;5762;43.256;26.960;2023-03-03T02:59:27;99946.99;;;5.10;100.00
11413;BME280;5762;43.256;26.960;2023-03-03T03:01:56;99951.08;;;5.18;100.00
11413;BME280;5762;43.256;26.960;2023-03-03T03:04:26;99950.25;;;5.15;100.00
11413;BME280;5762;43.256;26.960;2023-03-03T03:06:55;99956.47;;;5.25;100.00
11413;BME280;5762;43.256;26.960;2023-03-03T03:09:24;99956.23;;;5.29;100.00
11413;BME280;5762;43.256;26.960;2023-03-03T03:11:52;99951.14;;;5.30;100.00
11413;BME280;5762;43.256;26.960;2023-03-03T03:14:21;99950.43;;;5.43;100.00
11413;BME280;5762;43.256;26.960;2023-03-03T03:16:50;99947.16;;;5.35;100.00
11413;BME280;5762;43.256;26.960;2023-03-03T03:19:18;99950.47;;;5.48;100.00
11413;BME280;5762;43.256;26.960;2023-03-03T03:21:46;99946.16;;;5.47;100.00
11413;BME280;5762;43.256;26.960;2023-03-03T03:24:15;99943.22;;;5.48;100.00
11413;BME280;5762;43.256;26.960;2023-03-03T03:26:44;99938.66;;;5.49;100.00
11413;BME280;5762;43.256;26.960;2023-03-03T03:29:12;99935.20;;;5.58;100.00
11413;BME280;5762;43.256;26.960;2023-03-03T03:31:42;99926.06;;;5.52;100.00
11413;BME280;5762;43.256;26.960;2023-03-03T03:34:10;99924.73;;;5.54;100.00
11413;BME280;5762;43.256;26.960;2023-03-03T03:36:39;99915.88;;;5.59;100.00
11413;BME280;5762;43.256;26.960;2023-03-03T03:39:07;99916.95;;;5.58;100.00
11413;BME280;5762;43.256;26.960;2023-03-03T03:41:36;99915.05;;;5.51;100.00
11413;BME280;5762;43.256;26.960;2023-03-03T03:44:04;99913.45;;;5.52;100.00
11413;BME280;5762;43.256;26.960;2023-03-03T03:46:33;99915.59;;;5.55;100.00
11413;BME280;5762;43.256;26.960;2023-03-03T03:49:02;99903.46;;;5.43;100.00
11413;BME280;5762;43.256;26.960;2023-03-03T03:51:31;99902.19;;;5.53;100.00
11413;BME280;5762;43.256;26.960;2023-03-03T03:54:00;99897.07;;;5.51;100.00
11413;BME280;5762;43.256;26.960;2023-03-03T03:56:28;99890.00;;;5.35;100.00
11413;BME280;5762;43.256;26.960;2023-03-03T03:58:57;99889.78;;;5.44;100.00
11413;BME280;5762;43.256;26.960;2023-03-03T04:01:27;99890.33;;;5.46;100.00
11413;BME280;5762;43.256;26.960;2023-03-03T04:03:55;99889.51;;;5.43;100.00
11413;BME280;5762;43.256;26.960;2023-03-03T04:06:24;99880.64;;;5.43;100.00
11413;BME280;5762;43.256;26.960;2023-03-03T04:08:53;99880.88;;;5.36;100.00
11413;BME280;5762;43.256;26.960;2023-03-03T04:11:22;99872.00;;;5.33;100.00
11413;BME280;5762;43.256;26.960;2023-03-03T04:13:50;99880.62;;;5.37;100.00
11413;BME280;5762;43.256;26.960;2023-03-03T04:16:19;99881.47;;;5.46;100.00
11413;BME280;5762;43.256;26.960;2023-03-03T04:18:48;99880.38;;;5.42;100.00
11413;BME280;5762;43.256;26.960;2023-03-03T04:21:17;99879.86;;;5.45;100.00
11413;BME280;5762;43.256;26.960;2023-03-03T04:23:45;99871.80;;;5.45;100.00
11413;BME280;5762;43.256;26.960;2023-03-03T04:26:14;99867.23;;;5.43;100.00
11413;BME280;5762;43.256;26.960;2023-03-03T04:28:43;99868.30;;;5.42;100.00
11413;BME280;5762;43.256;26.960;2023-03-03T04:31:11;99875.81;;;5.42;100.00
11413;BME280;5762;43.256;26.960;2023-03-03T04:33:40;99874.19;;;5.38;100.00
11413;BME280;5762;43.256;26.960;2023-03-03T04:36:09;99871.00;;;5.44;100.00
11413;BME280;5762;43.256;26.960;2023-03-03T04:38:38;99872.34;;;5.47;100.00
11413;BME280;5762;43.256;26.960;2023-03-03T04:41:07;99868.22;;;5.29;100.00
11413;BME280;5762;43.256;26.960;2023-03-03T04:43:35;99869.03;;;5.29;100.00
11413;BME280;5762;43.256;26.960;2023-03-03T04:46:03;99869.58;;;5.31;100.00
11413;BME280;5762;43.256;26.960;2023-03-03T04:48:32;99870.36;;;5.27;100.00
11413;BME280;5762;43.256;26.960;2023-03-03T04:51:00;99864.73;;;5.28;100.00
11413;BME280;5762;43.256;26.960;2023-03-03T04:53:29;99868.48;;;5.27;100.00
11413;BME280;5762;43.256;26.960;2023-03-03T04:55:57;99870.55;;;5.13;100.00
11413;BME280;5762;43.256;26.960;2023-03-03T04:58:27;99872.62;;;5.00;100.00
11413;BME280;5762;43.256;26.960;2023-03-03T05:00:56;99871.49;;;4.94;100.00
11413;BME280;5762;43.256;26.960;2023-03-03T05:03:25;99874.64;;;4.86;100.00
11413;BME280;5762;43.256;26.960;2023-03-03T05:05:53;99876.00;;;4.83;100.00
11413;BME280;5762;43.256;26.960;2023-03-03T05:08:22;99881.10;;;4.85;100.00
11413;BME280;5762;43.256;26.960;2023-03-03T05:10:52;99885.91;;;4.83;100.00
11413;BME280;5762;43.256;26.960;2023-03-03T05:13:21;99892.08;;;4.86;100.00
11413;BME280;5762;43.256;26.960;2023-03-03T05:15:50;99896.09;;;4.86;100.00
11413;BME280;5762;43.256;26.960;2023-03-03T05:18:20;99904.95;;;4.86;100.00
11413;BME280;5762;43.256;26.960;2023-03-03T05:20:50;99901.42;;;4.78;100.00
11413;BME280;5762;43.256;26.960;2023-03-03T05:23:19;99900.61;;;4.78;100.00
11413;BME280;5762;43.256;26.960;2023-03-03T05:25:49;99905.89;;;4.67;100.00
11413;BME280;5762;43.256;26.960;2023-03-03T05:28:18;99916.09;;;4.70;100.00
11413;BME280;5762;43.256;26.960;2023-03-03T05:30:47;99917.52;;;4.78;100.00
11413;BME280;5762;43.256;26.960;2023-03-03T05:33:16;99920.08;;;4.65;100.00
11413;BME280;5762;43.256;26.960;2023-03-03T05:35:45;99919.03;;;4.69;100.00
11413;BME280;5762;43.256;26.960;2023-03-03T05:38:13;99923.31;;;4.67;100.00
11413;BME280;5762;43.256;26.960;2023-03-03T05:40:42;99918.70;;;4.63;100.00
11413;BME280;5762;43.256;26.960;2023-03-03T05:43:10;99921.56;;;4.54;100.00
11413;BME280;5762;43.256;26.960;2023-03-03T05:45:39;99926.73;;;4.60;100.00
11413;BME280;5762;43.256;26.960;2023-03-03T05:48:07;99925.91;;;4.60;100.00
11413;BME280;5762;43.256;26.960;2023-03-03T05:50:36;99934.73;;;4.58;100.00
11413;BME280;5762;43.256;26.960;2023-03-03T05:53:06;99936.66;;;4.62;100.00
11413;BME280;5762;43.256;26.960;2023-03-03T05:55:34;99933.17;;;4.62;100.00
11413;BME280;5762;43.256;26.960;2023-03-03T05:58:03;99933.70;;;4.61;100.00
11413;BME280;5762;43.256;26.960;2023-03-03T06:00:31;99925.99;;;4.67;100.00
11413;BME280;5762;43.256;26.960;2023-03-03T06:03:00;99923.66;;;4.76;100.00
11413;BME280;5762;43.256;26.960;2023-03-03T06:05:29;99926.31;;;4.74;100.00
11413;BME280;5762;43.256;26.960;2023-03-03T06:07:58;99920.70;;;4.75;100.00
11413;BME280;5762;43.256;26.960;2023-03-03T06:10:27;99917.83;;;4.84;100.00
11413;BME280;5762;43.256;26.960;2023-03-03T06:12:56;99920.55;;;4.92;100.00
11413;BME280;5762;43.256;26.960;2023-03-03T06:15:25;99911.93;;;4.87;100.00
11413;BME280;5762;43.256;26.960;2023-03-03T06:17:53;99911.44;;;4.93;100.00
11413;BME280;5762;43.256;26.960;2023-03-03T06:20:21;99910.59;;;4.87;100.00
11413;BME280;5762;43.256;26.960;2023-03-03T06:22:49;99915.48;;;4.95;100.00
11413;BME280;5762;43.256;26.960;2023-03-03T06:25:19;99917.97;;;5.04;100.00
11413;BME280;5762;43.256;26.960;2023-03-03T06:27:48;99914.70;;;4.97;100.00
11413;BME280;5762;43.256;26.960;2023-03-03T06:30:16;99916.91;;;5.05;100.00
11413;BME280;5762;43.256;26.960;2023-03-03T06:32:45;99919.10;;;5.11;100.00
11413;BME280;5762;43.256;26.960;2023-03-03T06:35:13;99918.61;;;5.17;100.00
11413;BME280;5762;43.256;26.960;2023-03-03T06:37:42;99919.12;;;5.14;100.00
11413;BME280;5762;43.256;26.960;2023-03-03T06:40:10;99924.57;;;5.29;100.00
11413;BME280;5762;43.256;26.960;2023-03-03T06:42:40;99919.97;;;5.24;100.00
11413;BME280;5762;43.256;26.960;2023-03-03T06:45:09;99917.52;;;5.15;100.00
11413;BME280;5762;43.256;26.960;2023-03-03T06:47:37;99913.51;;;5.20;100.00
11413;BME280;5762;43.256;26.960;2023-03-03T06:50:06;99917.66;;;5.38;100.00
11413;BME280;5762;43.256;26.960;2023-03-03T06:52:35;99920.36;;;5.41;100.00
11413;BME280;5762;43.256;26.960;2023-03-03T06:55:11;99915.31;;;5.49;100.00
11413;BME280;5762;43.256;26.960;2023-03-03T06:57:40;99915.05;;;5.51;100.00
11413;BME280;5762;43.256;26.960;2023-03-03T07:00:15;99910.30;;;5.70;100.00
11413;BME280;5762;43.256;26.960;2023-03-03T07:02:45;99902.58;;;5.82;100.00
11413;BME280;5762;43.256;26.960;2023-03-03T07:05:15;99904.20;;;5.85;100.00
11413;BME280;5762;43.256;26.960;2023-03-03T07:07:44;99897.55;;;6.00;100.00
11413;BME280;5762;43.256;26.960;2023-03-03T07:10:23;99888.69;;;6.02;100.00
11413;BME280;5762;43.256;26.960;2023-03-03T07:12:41;99890.10;;;6.23;100.00
11413;BME280;5762;43.256;26.960;2023-03-03T07:15:15;99884.73;;;6.35;100.00
11413;BME280;5762;43.256;26.960;2023-03-03T07:17:45;99884.70;;;6.15;100.00
11413;BME280;5762;43.256;26.960;2023-03-03T07:20:19;99878.27;;;6.19;100.00
11413;BME280;5762;43.256;26.960;2023-03-03T07:22:43;99878.03;;;6.48;100.00
11413;BME280;5762;43.256;26.960;2023-03-03T07:25:19;99877.47;;;6.33;100.00
11413;BME280;5762;43.256;26.960;2023-03-03T07:27:48;99877.48;;;6.41;100.00
11413;BME280;5762;43.256;26.960;2023-03-03T07:30:24;99870.52;;;6.58;100.00
11413;BME280;5762;43.256;26.960;2023-03-03T07:32:55;99865.67;;;6.55;100.00
11413;BME280;5762;43.256;26.960;2023-03-03T07:40:53;99857.07;;;6.55;100.00
11413;BME280;5762;43.256;26.960;2023-03-03T07:43:34;99856.80;;;6.54;100.00
11413;BME280;5762;43.256;26.960;2023-03-03T07:46:12;99860.82;;;6.75;100.00
11413;BME280;5762;43.256;26.960;2023-03-03T07:48:38;99861.86;;;6.94;100.00
11413;BME280;5762;43.256;26.960;2023-03-03T07:51:27;99857.33;;;6.82;100.00
11413;BME280;5762;43.256;26.960;2023-03-03T07:53:40;99845.22;;;6.79;100.00
11413;BME280;5762;43.256;26.960;2023-03-03T07:56:42;99848.19;;;6.50;100.00
11413;BME280;5762;43.256;26.960;2023-03-03T07:58:44;99850.34;;;6.53;100.00
11413;BME280;5762;43.256;26.960;2023-03-03T08:01:35;99844.97;;;6.50;100.00
11413;BME280;5762;43.256;26.960;2023-03-03T08:04:00;99841.75;;;6.58;100.00
11413;BME280;5762;43.256;26.960;2023-03-03T08:11:52;99839.03;;;6.61;100.00
11413;BME280;5762;43.256;26.960;2023-03-03T08:14:28;99844.16;;;6.57;100.00
11413;BME280;5762;43.256;26.960;2023-03-03T08:16:51;99853.02;;;6.40;100.00
11413;BME280;5762;43.256;26.960;2023-03-03T08:19:20;99848.17;;;6.37;100.00
11413;BME280;5762;43.256;26.960;2023-03-03T08:21:50;99853.03;;;6.48;100.00
11413;BME280;5762;43.256;26.960;2023-03-03T08:24:19;99849.53;;;6.42;100.00
11413;BME280;5762;43.256;26.960;2023-03-03T08:26:48;99850.88;;;6.50;100.00
11413;BME280;5762;43.256;26.960;2023-03-03T08:29:17;99844.97;;;6.53;100.00
11413;BME280;5762;43.256;26.960;2023-03-03T08:31:46;99852.75;;;6.67;100.00
11413;BME280;5762;43.256;26.960;2023-03-03T08:34:15;99850.33;;;6.70;100.00
11413;BME280;5762;43.256;26.960;2023-03-03T08:36:43;99847.37;;;6.87;100.00
11413;BME280;5762;43.256;26.960;2023-03-03T08:39:12;99840.10;;;6.90;100.00
11413;BME280;5762;43.256;26.960;2023-03-03T08:41:41;99840.33;;;7.01;100.00
11413;BME280;5762;43.256;26.960;2023-03-03T08:44:10;99834.98;;;6.91;100.00
11413;BME280;5762;43.256;26.960;2023-03-03T08:46:41;99840.34;;;6.96;100.00
11413;BME280;5762;43.256;26.960;2023-03-03T08:49:10;99832.57;;;6.87;100.00
11413;BME280;5762;43.256;26.960;2023-03-03T08:51:39;99833.07;;;6.99;100.00
11413;BME280;5762;43.256;26.960;2023-03-03T08:54:08;99832.51;;;7.15;100.00
11413;BME280;5762;43.256;26.960;2023-03-03T08:56:37;99831.45;;;7.03;100.00
11413;BME280;5762;43.256;26.960;2023-03-03T08:59:06;99824.20;;;6.94;100.00
11413;BME280;5762;43.256;26.960;2023-03-03T09:01:35;99826.05;;;7.19;100.00
11413;BME280;5762;43.256;26.960;2023-03-03T09:04:03;99819.05;;;7.18;100.00
11413;BME280;5762;43.256;26.960;2023-03-03T09:06:32;99825.72;;;7.30;100.00
11413;BME280;5762;43.256;26.960;2023-03-03T09:09:01;99825.69;;;7.40;100.00
11413;BME280;5762;43.256;26.960;2023-03-03T09:11:29;99820.33;;;7.30;100.00
11413;BME280;5762;43.256;26.960;2023-03-03T09:14:09;99816.81;;;7.37;100.00
11413;BME280;5762;43.256;26.960;2023-03-03T09:16:29;99817.16;;;7.21;100.00
11413;BME280;5762;43.256;26.960;2023-03-03T09:18:57;99809.92;;;7.06;100.00
11413;BME280;5762;43.256;26.960;2023-03-03T09:21:29;99805.31;;;7.19;100.00
11413;BME280;5762;43.256;26.960;2023-03-03T09:24:00;99800.77;;;7.10;100.00
11413;BME280;5762;43.256;26.960;2023-03-03T09:26:47;99805.34;;;7.04;100.00
11413;BME280;5762;43.256;26.960;2023-03-03T09:29:18;99804.59;;;6.91;100.00
11413;BME280;5762;43.256;26.960;2023-03-03T09:31:59;99803.47;;;6.99;100.00
11413;BME280;5762;43.256;26.960;2023-03-03T09:34:40;99799.70;;;7.03;100.00
11413;BME280;5762;43.256;26.960;2023-03-03T09:39:52;99797.72;;;7.29;100.00
11413;BME280;5762;43.256;26.960;2023-03-03T09:45:20;99797.01;;;7.03;100.00
11413;BME280;5762;43.256;26.960;2023-03-03T10:03:55;99787.55;;;7.21;100.00
11413;BME280;5762;43.256;26.960;2023-03-03T10:06:31;99793.19;;;7.24;100.00
11413;BME280;5762;43.256;26.960;2023-03-03T10:16:55;99783.12;;;7.48;100.00
11413;BME280;5762;43.256;26.960;2023-03-03T10:19:37;99783.94;;;7.46;100.00
11413;BME280;5762;43.256;26.960;2023-03-03T10:22:12;99772.38;;;7.40;100.00
11413;BME280;5762;43.256;26.960;2023-03-03T10:24:39;99769.35;;;7.57;100.00
11413;BME280;5762;43.256;26.960;2023-03-03T10:55:51;99681.73;;;9.28;100.00
11413;BME280;5762;43.256;26.960;2023-03-03T11:01:20;99666.17;;;9.57;100.00
11413;BME280;5762;43.256;26.960;2023-03-03T11:09:15;99658.87;;;9.74;100.00
11413;BME280;5762;43.256;26.960;2023-03-03T11:11:43;99657.16;;;9.46;100.00
11413;BME280;5762;43.256;26.960;2023-03-03T11:14:22;99652.31;;;9.05;100.00
11413;BME280;5762;43.256;26.960;2023-03-03T11:16:53;99651.28;;;9.60;100.00
11413;BME280;5762;43.256;26.960;2023-03-03T11:19:34;99651.95;;;10.17;100.00
11413;BME280;5762;43.256;26.960;2023-03-03T11:27:18;99641.20;;;10.85;100.00
11413;BME280;5762;43.256;26.960;2023-03-03T11:40:23;99628.24;;;11.68;100.00
11413;BME280;5762;43.256;26.960;2023-03-03T11:45:28;99621.39;;;11.12;100.00
11413;BME280;5762;43.256;26.960;2023-03-03T11:50:30;99621.41;;;11.23;100.00
11413;BME280;5762;43.256;26.960;2023-03-03T12:00:51;99596.75;;;11.36;100.00
11413;BME280;5762;43.256;26.960;2023-03-03T12:03:33;99597.13;;;11.65;100.00
11413;BME280;5762;43.256;26.960;2023-03-03T12:08:44;99596.70;;;11.14;100.00
11413;BME280;5762;43.256;26.960;2023-03-03T12:16:48;99583.33;;;10.95;100.00
11413;BME280;5762;43.256;26.960;2023-03-03T12:21:59;99581.89;;;11.22;100.00
11413;BME280;5762;43.256;26.960;2023-03-03T12:24:30;99584.78;;;10.90;100.00
11413;BME280;5762;43.256;26.960;2023-03-03T12:27:09;99588.14;;;10.98;100.00
11413;BME280;5762;43.256;26.960;2023-03-03T12:29:43;99587.19;;;10.91;100.00
11413;BME280;5762;43.256;26.960;2023-03-03T12:32:21;99586.70;;;10.75;100.00
11413;BME280;5762;43.256;26.960;2023-03-03T12:34:53;99584.38;;;10.71;100.00
11413;BME280;5762;43.256;26.960;2023-03-03T12:40:02;99580.82;;;10.60;100.00
11413;BME280;5762;43.256;26.960;2023-03-03T12:47:37;99582.58;;;10.92;100.00
11413;BME280;5762;43.256;26.960;2023-03-03T12:57:57;99580.95;;;11.16;100.00
11413;BME280;5762;43.256;26.960;2023-03-03T13:00:26;99580.73;;;11.26;100.00
11413;BME280;5762;43.256;26.960;2023-03-03T13:10:54;99570.09;;;10.93;100.00
11413;BME280;5762;43.256;26.960;2023-03-03T13:13:23;99566.56;;;11.06;100.00
11413;BME280;5762;43.256;26.960;2023-03-03T13:15:57;99567.52;;;10.99;100.00
11413;BME280;5762;43.256;26.960;2023-03-03T13:21:08;99573.86;;;10.70;100.00
11413;BME280;5762;43.256;26.960;2023-03-03T13:26:21;99573.37;;;10.79;100.00
11413;BME280;5762;43.256;26.960;2023-03-03T13:31:21;99569.05;;;10.92;100.00
11413;BME280;5762;43.256;26.960;2023-03-03T13:33:52;99564.58;;;10.73;100.00
11413;BME280;5762;43.256;26.960;2023-03-03T13:36:22;99564.58;;;10.73;100.00
11413;BME280;5762;43.256;26.960;2023-03-03T13:38:52;99555.96;;;10.71;100.00
11413;BME280;5762;43.256;26.960;2023-03-03T13:41:27;99572.45;;;10.45;100.00
11413;BME280;5762;43.256;26.960;2023-03-03T13:43:59;99569.95;;;10.49;100.00
11413;BME280;5762;43.256;26.960;2023-03-03T14:02:11;99561.28;;;10.49;100.00
11413;BME280;5762;43.256;26.960;2023-03-03T14:04:53;99559.92;;;10.49;100.00
11413;BME280;5762;43.256;26.960;2023-03-03T14:07:25;99562.95;;;10.34;100.00
11413;BME280;5762;43.256;26.960;2023-03-03T14:09:55;99567.06;;;10.15;100.00
11413;BME280;5762;43.256;26.960;2023-03-03T14:20:18;99561.10;;;10.16;100.00
11413;BME280;5762;43.256;26.960;2023-03-03T14:25:19;99555.73;;;10.13;100.00
11413;BME280;5762;43.256;26.960;2023-03-03T14:28:01;99555.16;;;10.02;100.00
11413;BME280;5762;43.256;26.960;2023-03-03T14:30:31;99552.80;;;9.98;100.00
11413;BME280;5762;43.256;26.960;2023-03-03T14:33:01;99550.13;;;9.96;100.00
11413;BME280;5762;43.256;26.960;2023-03-03T14:35:32;99555.67;;;9.88;100.00
11413;BME280;5762;43.256;26.960;2023-03-03T14:38:00;99554.03;;;9.73;100.00
11413;BME280;5762;43.256;26.960;2023-03-03T14:40:32;99561.34;;;9.73;100.00
11413;BME280;5762;43.256;26.960;2023-03-03T14:43:02;99560.23;;;9.74;100.00
11413;BME280;5762;43.256;26.960;2023-03-03T14:45:37;99568.20;;;9.68;100.00
11413;BME280;5762;43.256;26.960;2023-03-03T14:48:18;99566.13;;;9.62;100.00
11413;BME280;5762;43.256;26.960;2023-03-03T14:50:56;99566.30;;;9.52;100.00
11413;BME280;5762;43.256;26.960;2023-03-03T14:53:30;99562.53;;;9.51;100.00
11413;BME280;5762;43.256;26.960;2023-03-03T14:58:45;99572.80;;;9.35;100.00
11413;BME280;5762;43.256;26.960;2023-03-03T15:01:33;99569.19;;;9.23;100.00
11413;BME280;5762;43.256;26.960;2023-03-03T15:04:03;99577.47;;;9.11;100.00
11413;BME280;5762;43.256;26.960;2023-03-03T15:06:36;99571.88;;;9.04;100.00
11413;BME280;5762;43.256;26.960;2023-03-03T15:09:20;99574.20;;;8.95;100.00
11413;BME280;5762;43.256;26.960;2023-03-03T15:11:55;99576.70;;;8.89;100.00
11413;BME280;5762;43.256;26.960;2023-03-03T15:14:29;99580.43;;;8.71;100.00
11413;BME280;5762;43.256;26.960;2023-03-03T15:16:59;99587.93;;;8.56;100.00
11413;BME280;5762;43.256;26.960;2023-03-03T15:19:38;99595.84;;;8.47;100.00
11413;BME280;5762;43.256;26.960;2023-03-03T15:22:04;99600.62;;;8.29;100.00
11413;BME280;5762;43.256;26.960;2023-03-03T15:24:40;99610.18;;;8.16;100.00
11413;BME280;5762;43.256;26.960;2023-03-03T15:32:10;99626.04;;;7.94;100.00
11413;BME280;5762;43.256;26.960;2023-03-03T15:34:40;99632.58;;;7.85;100.00
11413;BME280;5762;43.256;26.960;2023-03-03T15:37:44;99638.09;;;7.67;100.00
11413;BME280;5762;43.256;26.960;2023-03-03T15:42:14;99644.45;;;7.48;100.00
11413;BME280;5762;43.256;26.960;2023-03-03T15:44:55;99649.39;;;7.30;100.00
11413;BME280;5762;43.256;26.960;2023-03-03T15:47:45;99659.17;;;7.19;100.00
11413;BME280;5762;43.256;26.960;2023-03-03T15:52:38;99668.08;;;7.14;100.00
11413;BME280;5762;43.256;26.960;2023-03-03T15:55:17;99668.30;;;7.23;100.00
11413;BME280;5762;43.256;26.960;2023-03-03T15:57:39;99671.87;;;7.08;100.00
11413;BME280;5762;43.256;26.960;2023-03-03T16:02:54;99675.41;;;6.98;100.00
11413;BME280;5762;43.256;26.960;2023-03-03T16:05:33;99680.53;;;6.95;100.00
11413;BME280;5762;43.256;26.960;2023-03-03T16:10:37;99694.75;;;7.05;100.00
11413;BME280;5762;43.256;26.960;2023-03-03T16:15:40;99697.73;;;6.99;100.00
11413;BME280;5762;43.256;26.960;2023-03-03T16:18:06;99705.01;;;6.96;100.00
11413;BME280;5762;43.256;26.960;2023-03-03T16:20:33;99709.31;;;6.97;100.00
11413;BME280;5762;43.256;26.960;2023-03-03T16:36:22;99720.87;;;7.00;100.00
11413;BME280;5762;43.256;26.960;2023-03-03T16:41:37;99730.56;;;6.96;100.00
11413;BME280;5762;43.256;26.960;2023-03-03T16:44:23;99729.22;;;6.96;100.00
11413;BME280;5762;43.256;26.960;2023-03-03T16:46:49;99737.82;;;7.00;100.00
11413;BME280;5762;43.256;26.960;2023-03-03T16:49:20;99744.28;;;6.99;100.00
11413;BME280;5762;43.256;26.960;2023-03-03T16:51:48;99747.78;;;6.95;100.00
11413;BME280;5762;43.256;26.960;2023-03-03T16:54:24;99749.94;;;6.95;100.00
11413;BME280;5762;43.256;26.960;2023-03-03T16:59:27;99755.36;;;6.93;100.00
11413;BME280;5762;43.256;26.960;2023-03-03T17:09:50;99752.66;;;6.93;100.00
11413;BME280;5762;43.256;26.960;2023-03-03T17:17:26;99762.09;;;6.90;100.00
11413;BME280;5762;43.256;26.960;2023-03-03T17:22:44;99766.31;;;7.09;100.00